Flight Track Log - Related Links

Times and Time Zones

All times are in EDT time to prevent confusion due to time zone crossing. See the UPS1122 flight status page for this flight to view local times or setup timezone preferences in your user account.

Time Position Orientation Groundspeed Altitude Reporting Facility
EDT Latitude Longitude Course Direction KTS MPH feet Rate Location/Type
Tue 06:24:06 AM 41.9417 -72.6969 315° West 98 113 1,500  Level Boston Center
Tue 06:24:31 AM 41.9500 -72.7081 315° West 133 153 3,000 2,753 Climbing Boston Center
Tue 06:25:31 AM 41.9853 -72.7528 317° Northwest 185 213 5,400 2,826 Climbing Boston Center
Tue 06:26:32 AM 42.0308 -72.8175 313° West 243 280 8,700 2,262 Climbing Boston Center
Tue 06:27:33 AM 42.0786 -72.8847 314° West 261 300 10,000 1,012 Climbing Boston Center
Tue 06:27:55 AM 42.1014 -72.9158 315° West 283 326 10,100 67 Climbing Boston Center
Tue 06:29:02 AM 42.1572 -72.9917 315° West 259 298 10,100  Level Boston Center
Tue 06:30:02 AM 42.2069 -73.0622 314° West 254 292 10,100  Level Boston Center
Tue 06:31:03 AM 42.2567 -73.1300 315° West 259 298 10,100 -50 Level Boston Center
Tue 06:32:03 AM 42.3083 -73.2008 315° West 259 298 10,000  Descending Boston Center
Tue 06:33:04 AM 42.3578 -73.2717 313° West 260 299 10,100 -148 Climbing Boston Center
Tue 06:34:05 AM 42.3925 -73.3536 300° West 251 289 9,700 -942 Descending Boston Center
Tue 06:35:05 AM 42.4253 -73.4414 297° West 240 276 8,200 -1,438 Descending Boston Center
Tue 06:36:06 AM 42.4558 -73.5206 298° West 236 272 6,800 -1,475 Descending Boston Center
Tue 06:37:07 AM 42.4819 -73.5972 295° West 228 262 5,200 -1,388 Descending Boston Center
Tue 06:38:07 AM 42.5125 -73.6739 298° West 228 262 4,000 -942 Descending Boston Center
Tue 06:39:08 AM 42.5347 -73.7447 293° West 208 239 3,300 -645 Descending Boston Center
Tue 06:40:08 AM 42.5631 -73.7989 305° West 169 194 2,700 -347 Descending Boston Center
Tue 06:41:09 AM 42.6047 -73.8025 356° North 147 169 2,600 -197 Descending Boston Center
Tue 06:42:10 AM 42.6444 -73.8033 359° North 135 155 2,300 -472 Descending Boston Center
Tue 06:43:16 AM 42.6756 -73.8042 359° North 97 112 1,600 -661 Descending Boston Center
Tue 06:44:17 AM 42.7069 -73.8047 359° North 102 117 900 -689 Descending Boston Center

Login

Don't have an account? Register now (free) for customized features, flight alerts, and more!